sensor_id;sensor_type;location;lat;lon;timestamp;pressure;altitude;pressure_sealevel;temperature;humidity
81897;BME280;71360;43.506;1.500;2024-02-23T00:00:38;98018.09;;;6.66;75.43
81897;BME280;71360;43.506;1.500;2024-02-23T00:03:04;98015.53;;;6.64;75.69
81897;BME280;71360;43.506;1.500;2024-02-23T00:05:29;98012.16;;;6.61;75.47
81897;BME280;71360;43.506;1.500;2024-02-23T00:07:55;98009.78;;;6.56;75.40
81897;BME280;71360;43.506;1.500;2024-02-23T00:10:20;98012.50;;;6.54;75.39
81897;BME280;71360;43.506;1.500;2024-02-23T00:12:46;98003.00;;;6.50;75.11
81897;BME280;71360;43.506;1.500;2024-02-23T00:15:13;97998.81;;;6.46;74.91
81897;BME280;71360;43.506;1.500;2024-02-23T00:17:38;97995.34;;;6.44;75.27
81897;BME280;71360;43.506;1.500;2024-02-23T00:20:05;97997.38;;;6.39;75.25
81897;BME280;71360;43.506;1.500;2024-02-23T00:22:32;97991.31;;;6.37;75.28
81897;BME280;71360;43.506;1.500;2024-02-23T00:24:59;97995.09;;;6.33;75.42
81897;BME280;71360;43.506;1.500;2024-02-23T00:27:24;97985.66;;;6.27;75.14
81897;BME280;71360;43.506;1.500;2024-02-23T00:29:49;97979.66;;;6.23;75.07
81897;BME280;71360;43.506;1.500;2024-02-23T00:32:15;97979.91;;;6.19;74.73
81897;BME280;71360;43.506;1.500;2024-02-23T00:34:40;97981.84;;;6.15;75.22
81897;BME280;71360;43.506;1.500;2024-02-23T00:37:06;97981.22;;;6.10;75.15
81897;BME280;71360;43.506;1.500;2024-02-23T00:39:33;97977.03;;;6.06;75.60
81897;BME280;71360;43.506;1.500;2024-02-23T00:41:58;97974.63;;;6.01;75.43
81897;BME280;71360;43.506;1.500;2024-02-23T00:44:24;97973.03;;;5.97;75.38
81897;BME280;71360;43.506;1.500;2024-02-23T00:46:49;97970.59;;;5.92;75.85
81897;BME280;71360;43.506;1.500;2024-02-23T00:49:15;97963.75;;;5.88;75.98
81897;BME280;71360;43.506;1.500;2024-02-23T00:51:40;97960.41;;;5.85;76.12
81897;BME280;71360;43.506;1.500;2024-02-23T00:54:06;97958.78;;;5.82;75.88
81897;BME280;71360;43.506;1.500;2024-02-23T00:56:33;97963.38;;;5.79;75.72
81897;BME280;71360;43.506;1.500;2024-02-23T00:58:58;97970.47;;;5.78;76.22
81897;BME280;71360;43.506;1.500;2024-02-23T01:01:24;97957.34;;;5.75;76.20
81897;BME280;71360;43.506;1.500;2024-02-23T01:03:51;97956.59;;;5.73;76.26
81897;BME280;71360;43.506;1.500;2024-02-23T01:06:17;97949.66;;;5.70;76.03
81897;BME280;71360;43.506;1.500;2024-02-23T01:08:42;97956.81;;;5.68;76.43
81897;BME280;71360;43.506;1.500;2024-02-23T01:11:08;97951.59;;;5.67;76.21
81897;BME280;71360;43.506;1.500;2024-02-23T01:13:36;97949.09;;;5.64;76.12
81897;BME280;71360;43.506;1.500;2024-02-23T01:16:01;97943.03;;;5.62;76.35
81897;BME280;71360;43.506;1.500;2024-02-23T01:18:27;97940.53;;;5.58;76.08
81897;BME280;71360;43.506;1.500;2024-02-23T01:20:53;97942.41;;;5.56;76.34
81897;BME280;71360;43.506;1.500;2024-02-23T01:23:18;97936.41;;;5.53;76.40
81897;BME280;71360;43.506;1.500;2024-02-23T01:25:43;97941.78;;;5.51;76.13
81897;BME280;71360;43.506;1.500;2024-02-23T01:28:09;97942.63;;;5.52;76.03
81897;BME280;71360;43.506;1.500;2024-02-23T01:30:34;97948.88;;;5.51;76.34
81897;BME280;71360;43.506;1.500;2024-02-23T01:33:00;97943.59;;;5.51;75.96
81897;BME280;71360;43.506;1.500;2024-02-23T01:35:25;97948.00;;;5.50;76.63
81897;BME280;71360;43.506;1.500;2024-02-23T01:37:53;97944.44;;;5.51;76.53
81897;BME280;71360;43.506;1.500;2024-02-23T01:40:18;97952.31;;;5.53;76.18
81897;BME280;71360;43.506;1.500;2024-02-23T01:42:44;97946.25;;;5.51;76.48
81897;BME280;71360;43.506;1.500;2024-02-23T01:45:10;97949.56;;;5.54;76.73
81897;BME280;71360;43.506;1.500;2024-02-23T01:47:35;97948.63;;;5.55;76.83
81897;BME280;71360;43.506;1.500;2024-02-23T01:50:01;97943.34;;;5.55;76.57
81897;BME280;71360;43.506;1.500;2024-02-23T01:52:28;97937.09;;;5.56;76.51
81897;BME280;71360;43.506;1.500;2024-02-23T01:54:54;97938.66;;;5.61;76.91
81897;BME280;71360;43.506;1.500;2024-02-23T01:57:21;97935.75;;;5.65;76.47
81897;BME280;71360;43.506;1.500;2024-02-23T01:59:47;97933.03;;;5.67;76.48
81897;BME280;71360;43.506;1.500;2024-02-23T02:02:13;97935.56;;;5.70;76.58
81897;BME280;71360;43.506;1.500;2024-02-23T02:04:39;97929.19;;;5.72;76.71
81897;BME280;71360;43.506;1.500;2024-02-23T02:07:05;97916.66;;;5.76;76.74
81897;BME280;71360;43.506;1.500;2024-02-23T02:09:30;97913.00;;;5.79;76.63
81897;BME280;71360;43.506;1.500;2024-02-23T02:11:56;97914.63;;;5.81;76.57
81897;BME280;71360;43.506;1.500;2024-02-23T02:14:21;97911.81;;;5.84;76.16
81897;BME280;71360;43.506;1.500;2024-02-23T02:16:47;97910.88;;;5.85;76.44
81897;BME280;71360;43.506;1.500;2024-02-23T02:19:13;97898.38;;;5.87;75.88
81897;BME280;71360;43.506;1.500;2024-02-23T02:21:40;97901.91;;;5.88;75.85
81897;BME280;71360;43.506;1.500;2024-02-23T02:24:06;97892.94;;;5.90;75.83
81897;BME280;71360;43.506;1.500;2024-02-23T02:26:32;97889.50;;;5.88;75.62
81897;BME280;71360;43.506;1.500;2024-02-23T02:28:57;97886.09;;;5.86;75.74
81897;BME280;71360;43.506;1.500;2024-02-23T02:31:23;97880.00;;;5.84;75.53
81897;BME280;71360;43.506;1.500;2024-02-23T02:33:48;97881.78;;;5.84;75.43
81897;BME280;71360;43.506;1.500;2024-02-23T02:36:14;97874.00;;;5.81;75.70
81897;BME280;71360;43.506;1.500;2024-02-23T02:38:39;97874.06;;;5.79;75.75
81897;BME280;71360;43.506;1.500;2024-02-23T02:41:05;97858.31;;;5.76;75.55
81897;BME280;71360;43.506;1.500;2024-02-23T02:43:31;97862.78;;;5.75;75.37
81897;BME280;71360;43.506;1.500;2024-02-23T02:45:57;97858.31;;;5.76;75.15
81897;BME280;71360;43.506;1.500;2024-02-23T02:48:23;97855.69;;;5.76;75.55
81897;BME280;71360;43.506;1.500;2024-02-23T02:50:49;97853.13;;;5.74;74.93
81897;BME280;71360;43.506;1.500;2024-02-23T02:53:15;97842.41;;;5.76;75.39
81897;BME280;71360;43.506;1.500;2024-02-23T02:55:42;97843.22;;;5.78;75.42
81897;BME280;71360;43.506;1.500;2024-02-23T02:58:08;97836.00;;;5.80;75.07
81897;BME280;71360;43.506;1.500;2024-02-23T03:00:33;97821.81;;;5.81;74.76
81897;BME280;71360;43.506;1.500;2024-02-23T03:02:59;97826.19;;;5.82;74.62
81897;BME280;71360;43.506;1.500;2024-02-23T03:05:24;97833.19;;;5.83;74.86
81897;BME280;71360;43.506;1.500;2024-02-23T03:07:49;97830.53;;;5.83;74.35
81897;BME280;71360;43.506;1.500;2024-02-23T03:10:15;97827.03;;;5.83;74.64
81897;BME280;71360;43.506;1.500;2024-02-23T03:12:41;97820.81;;;5.84;74.75
81897;BME280;71360;43.506;1.500;2024-02-23T03:15:07;97825.22;;;5.83;74.51
81897;BME280;71360;43.506;1.500;2024-02-23T03:17:32;97824.22;;;5.86;74.31
81897;BME280;71360;43.506;1.500;2024-02-23T03:19:58;97825.94;;;5.87;74.28
81897;BME280;71360;43.506;1.500;2024-02-23T03:22:24;97831.25;;;5.87;74.03
81897;BME280;71360;43.506;1.500;2024-02-23T03:24:49;97830.47;;;5.85;74.38
81897;BME280;71360;43.506;1.500;2024-02-23T03:27:15;97826.03;;;5.85;73.62
81897;BME280;71360;43.506;1.500;2024-02-23T03:29:40;97827.84;;;5.85;74.15
81897;BME280;71360;43.506;1.500;2024-02-23T03:32:06;97829.59;;;5.84;73.88
81897;BME280;71360;43.506;1.500;2024-02-23T03:34:32;97830.47;;;5.85;73.78
81897;BME280;71360;43.506;1.500;2024-02-23T03:36:57;97824.47;;;5.81;73.88
81897;BME280;71360;43.506;1.500;2024-02-23T03:39:27;97817.47;;;5.80;73.90
81897;BME280;71360;43.506;1.500;2024-02-23T03:41:54;97816.69;;;5.78;73.80
81897;BME280;71360;43.506;1.500;2024-02-23T03:44:19;97811.44;;;5.77;73.84
81897;BME280;71360;43.506;1.500;2024-02-23T03:46:44;97812.56;;;5.72;74.06
81897;BME280;71360;43.506;1.500;2024-02-23T03:49:10;97812.63;;;5.71;73.52
81897;BME280;71360;43.506;1.500;2024-02-23T03:51:37;97803.06;;;5.68;74.09
81897;BME280;71360;43.506;1.500;2024-02-23T03:54:05;97800.66;;;5.64;74.22
81897;BME280;71360;43.506;1.500;2024-02-23T03:56:30;97804.34;;;5.61;73.84
81897;BME280;71360;43.506;1.500;2024-02-23T03:59:02;97795.69;;;5.57;73.93
81897;BME280;71360;43.506;1.500;2024-02-23T04:01:28;97785.34;;;5.53;74.29
81897;BME280;71360;43.506;1.500;2024-02-23T04:03:53;97790.81;;;5.50;74.30
81897;BME280;71360;43.506;1.500;2024-02-23T04:06:18;97784.72;;;5.48;74.48
81897;BME280;71360;43.506;1.500;2024-02-23T04:08:44;97785.72;;;5.45;74.33
81897;BME280;71360;43.506;1.500;2024-02-23T04:11:12;97773.59;;;5.41;74.46
81897;BME280;71360;43.506;1.500;2024-02-23T04:13:38;97780.78;;;5.39;74.25
81897;BME280;71360;43.506;1.500;2024-02-23T04:16:04;97780.69;;;5.40;74.49
81897;BME280;71360;43.506;1.500;2024-02-23T04:18:29;97788.81;;;5.37;74.81
81897;BME280;71360;43.506;1.500;2024-02-23T04:20:55;97782.63;;;5.37;74.81
81897;BME280;71360;43.506;1.500;2024-02-23T04:23:20;97782.63;;;5.37;74.78
81897;BME280;71360;43.506;1.500;2024-02-23T04:25:46;97771.91;;;5.40;75.13
81897;BME280;71360;43.506;1.500;2024-02-23T04:28:11;97771.72;;;5.43;75.44
81897;BME280;71360;43.506;1.500;2024-02-23T04:30:37;97772.47;;;5.45;75.14
81897;BME280;71360;43.506;1.500;2024-02-23T04:33:02;97779.34;;;5.49;74.81
81897;BME280;71360;43.506;1.500;2024-02-23T04:35:27;97781.84;;;5.52;75.10
81897;BME280;71360;43.506;1.500;2024-02-23T04:37:53;97772.00;;;5.54;75.10
81897;BME280;71360;43.506;1.500;2024-02-23T04:40:18;97774.66;;;5.54;75.22
81897;BME280;71360;43.506;1.500;2024-02-23T04:42:44;97776.38;;;5.55;75.11
81897;BME280;71360;43.506;1.500;2024-02-23T04:45:10;97775.25;;;5.60;74.93
81897;BME280;71360;43.506;1.500;2024-02-23T04:47:36;97766.38;;;5.61;74.83
81897;BME280;71360;43.506;1.500;2024-02-23T04:50:01;97774.16;;;5.64;74.93
81897;BME280;71360;43.506;1.500;2024-02-23T04:52:28;97775.00;;;5.64;74.77
81897;BME280;71360;43.506;1.500;2024-02-23T04:54:54;97766.13;;;5.65;74.79
81897;BME280;71360;43.506;1.500;2024-02-23T04:57:19;97771.34;;;5.67;nan
81897;BME280;71360;43.506;1.500;2024-02-23T04:59:44;97777.59;;;5.66;75.17
81897;BME280;71360;43.506;1.500;2024-02-23T05:02:10;97765.28;;;5.65;74.73
81897;BME280;71360;43.506;1.500;2024-02-23T05:04:35;97767.00;;;5.66;74.67
81897;BME280;71360;43.506;1.500;2024-02-23T05:07:01;97770.56;;;5.65;75.15
81897;BME280;71360;43.506;1.500;2024-02-23T05:09:26;97774.16;;;5.64;74.61
81897;BME280;71360;43.506;1.500;2024-02-23T05:11:52;97772.44;;;5.63;74.75
81897;BME280;71360;43.506;1.500;2024-02-23T05:14:17;97769.03;;;5.61;74.50
81897;BME280;71360;43.506;1.500;2024-02-23T05:16:43;97755.91;;;5.57;74.56
81897;BME280;71360;43.506;1.500;2024-02-23T05:19:08;97770.22;;;5.55;74.53
81897;BME280;71360;43.506;1.500;2024-02-23T05:21:33;97765.94;;;5.52;74.28
81897;BME280;71360;43.506;1.500;2024-02-23T05:23:59;97771.38;;;5.49;74.38
81897;BME280;71360;43.506;1.500;2024-02-23T05:26:24;97771.56;;;5.46;74.37
81897;BME280;71360;43.506;1.500;2024-02-23T05:28:50;97761.13;;;5.43;74.53
81897;BME280;71360;43.506;1.500;2024-02-23T05:31:15;97759.41;;;5.42;74.69
81897;BME280;71360;43.506;1.500;2024-02-23T05:33:41;97757.78;;;5.39;74.57
81897;BME280;71360;43.506;1.500;2024-02-23T05:36:07;97757.84;;;5.38;74.93
81897;BME280;71360;43.506;1.500;2024-02-23T05:38:32;97758.03;;;5.35;74.71
81897;BME280;71360;43.506;1.500;2024-02-23T05:40:58;97756.31;;;5.34;74.69
81897;BME280;71360;43.506;1.500;2024-02-23T05:43:23;97757.16;;;5.34;75.13
81897;BME280;71360;43.506;1.500;2024-02-23T05:45:49;97762.53;;;5.33;74.62
81897;BME280;71360;43.506;1.500;2024-02-23T05:48:14;97766.16;;;5.32;74.73
81897;BME280;71360;43.506;1.500;2024-02-23T05:50:40;97762.72;;;5.30;75.05
81897;BME280;71360;43.506;1.500;2024-02-23T05:53:05;97768.94;;;5.29;74.93
81897;BME280;71360;43.506;1.500;2024-02-23T05:55:31;97761.94;;;5.28;75.40
81897;BME280;71360;43.506;1.500;2024-02-23T05:57:56;97759.34;;;5.26;75.40
81897;BME280;71360;43.506;1.500;2024-02-23T06:00:22;97769.09;;;5.26;75.07
81897;BME280;71360;43.506;1.500;2024-02-23T06:02:47;97755.78;;;5.27;75.26
81897;BME280;71360;43.506;1.500;2024-02-23T06:05:13;97761.94;;;5.28;75.12
81897;BME280;71360;43.506;1.500;2024-02-23T06:07:38;97762.78;;;5.28;75.46
81897;BME280;71360;43.506;1.500;2024-02-23T06:10:05;97764.50;;;5.29;75.56
81897;BME280;71360;43.506;1.500;2024-02-23T06:12:30;97766.06;;;5.33;75.26
81897;BME280;71360;43.506;1.500;2024-02-23T06:14:55;97764.25;;;5.34;75.00
81897;BME280;71360;43.506;1.500;2024-02-23T06:17:23;97759.81;;;5.34;74.85
81897;BME280;71360;43.506;1.500;2024-02-23T06:19:48;97761.44;;;5.37;75.54
81897;BME280;71360;43.506;1.500;2024-02-23T06:22:14;97764.97;;;5.37;74.87
81897;BME280;71360;43.506;1.500;2024-02-23T06:24:42;97768.44;;;5.38;75.15
81897;BME280;71360;43.506;1.500;2024-02-23T06:27:07;97761.44;;;5.37;75.29
81897;BME280;71360;43.506;1.500;2024-02-23T06:29:33;97760.50;;;5.38;75.34
81897;BME280;71360;43.506;1.500;2024-02-23T06:31:58;97765.81;;;5.38;75.11
81897;BME280;71360;43.506;1.500;2024-02-23T06:34:26;97768.28;;;5.41;75.46
81897;BME280;71360;43.506;1.500;2024-02-23T06:36:52;97764.53;;;5.45;75.50
81897;BME280;71360;43.506;1.500;2024-02-23T06:39:17;97767.13;;;5.47;75.08
81897;BME280;71360;43.506;1.500;2024-02-23T06:41:43;97762.59;;;5.49;75.13
81897;BME280;71360;43.506;1.500;2024-02-23T06:44:09;97769.34;;;5.54;75.03
81897;BME280;71360;43.506;1.500;2024-02-23T06:46:34;97752.50;;;5.55;74.92
81897;BME280;71360;43.506;1.500;2024-02-23T06:48:59;97758.66;;;5.56;74.95
81897;BME280;71360;43.506;1.500;2024-02-23T06:51:25;97751.22;;;5.63;74.75
81897;BME280;71360;43.506;1.500;2024-02-23T06:53:51;97760.81;;;5.65;74.17
81897;BME280;71360;43.506;1.500;2024-02-23T06:56:16;97762.38;;;5.69;74.41
81897;BME280;71360;43.506;1.500;2024-02-23T06:58:42;97771.78;;;5.75;74.96
81897;BME280;71360;43.506;1.500;2024-02-23T07:01:07;97767.97;;;5.81;74.26
81897;BME280;71360;43.506;1.500;2024-02-23T07:03:36;97769.72;;;5.80;74.02
81897;BME280;71360;43.506;1.500;2024-02-23T07:06:02;97767.00;;;5.82;74.32
81897;BME280;71360;43.506;1.500;2024-02-23T07:08:28;97787.19;;;5.84;74.48
81897;BME280;71360;43.506;1.500;2024-02-23T07:10:53;97787.28;;;5.83;74.83
81897;BME280;71360;43.506;1.500;2024-02-23T07:13:19;97791.03;;;5.79;75.01
81897;BME280;71360;43.506;1.500;2024-02-23T07:15:45;97789.31;;;5.78;75.42
81897;BME280;71360;43.506;1.500;2024-02-23T07:18:10;97779.06;;;5.71;75.61
81897;BME280;71360;43.506;1.500;2024-02-23T07:20:36;97797.84;;;5.67;75.76
81897;BME280;71360;43.506;1.500;2024-02-23T07:23:02;97788.50;;;5.60;76.51
81897;BME280;71360;43.506;1.500;2024-02-23T07:25:27;97793.19;;;5.54;76.60
81897;BME280;71360;43.506;1.500;2024-02-23T07:27:53;97788.25;;;5.48;76.82
81897;BME280;71360;43.506;1.500;2024-02-23T07:30:18;97794.56;;;5.46;76.80
81897;BME280;71360;43.506;1.500;2024-02-23T07:32:45;97796.50;;;5.42;77.20
81897;BME280;71360;43.506;1.500;2024-02-23T07:35:11;97777.19;;;5.40;77.66
81897;BME280;71360;43.506;1.500;2024-02-23T07:37:37;97781.69;;;5.38;77.67
81897;BME280;71360;43.506;1.500;2024-02-23T07:40:03;97777.34;;;5.37;77.70
81897;BME280;71360;43.506;1.500;2024-02-23T07:42:32;97773.94;;;5.35;77.48
81897;BME280;71360;43.506;1.500;2024-02-23T07:44:58;97774.84;;;5.34;78.19
81897;BME280;71360;43.506;1.500;2024-02-23T07:47:24;97782.81;;;5.34;77.72
81897;BME280;71360;43.506;1.500;2024-02-23T07:49:52;97778.44;;;5.33;78.00
81897;BME280;71360;43.506;1.500;2024-02-23T07:52:17;97791.69;;;5.33;78.12
81897;BME280;71360;43.506;1.500;2024-02-23T07:54:43;97795.22;;;5.33;78.90
81897;BME280;71360;43.506;1.500;2024-02-23T07:57:08;97787.16;;;5.35;78.70
81897;BME280;71360;43.506;1.500;2024-02-23T07:59:34;97774.78;;;5.35;78.72
81897;BME280;71360;43.506;1.500;2024-02-23T08:01:59;97772.91;;;5.37;78.48
81897;BME280;71360;43.506;1.500;2024-02-23T08:04:25;97765.88;;;5.36;78.85
81897;BME280;71360;43.506;1.500;2024-02-23T08:06:50;97756.84;;;5.40;78.95
81897;BME280;71360;43.506;1.500;2024-02-23T08:09:16;97759.41;;;5.42;79.00
81897;BME280;71360;43.506;1.500;2024-02-23T08:11:42;97756.59;;;5.45;78.53
81897;BME280;71360;43.506;1.500;2024-02-23T08:14:08;97765.25;;;5.49;78.89
81897;BME280;71360;43.506;1.500;2024-02-23T08:16:33;97765.94;;;5.52;78.59
81897;BME280;71360;43.506;1.500;2024-02-23T08:18:59;97771.91;;;5.56;78.61
81897;BME280;71360;43.506;1.500;2024-02-23T08:21:25;97772.53;;;5.61;78.55
81897;BME280;71360;43.506;1.500;2024-02-23T08:23:51;97771.25;;;5.68;78.30
81897;BME280;71360;43.506;1.500;2024-02-23T08:26:17;97773.50;;;5.76;78.10
81897;BME280;71360;43.506;1.500;2024-02-23T08:28:42;97773.94;;;5.84;78.27
81897;BME280;71360;43.506;1.500;2024-02-23T08:31:07;97774.34;;;5.92;77.47
81897;BME280;71360;43.506;1.500;2024-02-23T08:33:33;97773.13;;;6.00;77.39
81897;BME280;71360;43.506;1.500;2024-02-23T08:35:58;97779.72;;;6.08;77.49
81897;BME280;71360;43.506;1.500;2024-02-23T08:38:24;97786.47;;;6.14;77.17
81897;BME280;71360;43.506;1.500;2024-02-23T08:40:49;97792.38;;;6.19;77.18
81897;BME280;71360;43.506;1.500;2024-02-23T08:43:17;97783.03;;;6.28;77.11
81897;BME280;71360;43.506;1.500;2024-02-23T08:45:42;97788.84;;;6.35;77.05
81897;BME280;71360;43.506;1.500;2024-02-23T08:48:08;97790.16;;;6.44;77.07
81897;BME280;71360;43.506;1.500;2024-02-23T08:50:34;97796.47;;;6.57;76.74
81897;BME280;71360;43.506;1.500;2024-02-23T08:52:59;97792.41;;;6.66;76.45
81897;BME280;71360;43.506;1.500;2024-02-23T08:55:25;97793.66;;;6.74;75.66
81897;BME280;71360;43.506;1.500;2024-02-23T08:57:50;97808.41;;;6.80;75.51
81897;BME280;71360;43.506;1.500;2024-02-23T09:00:16;97805.47;;;6.85;75.04
81897;BME280;71360;43.506;1.500;2024-02-23T09:02:42;97802.53;;;6.89;74.98
81897;BME280;71360;43.506;1.500;2024-02-23T09:05:08;97805.63;;;6.98;74.59
81897;BME280;71360;43.506;1.500;2024-02-23T09:07:34;97806.97;;;7.05;74.28
81897;BME280;71360;43.506;1.500;2024-02-23T09:09:59;97802.31;;;7.08;73.79
81897;BME280;71360;43.506;1.500;2024-02-23T09:12:25;97809.09;;;7.14;72.92
81897;BME280;71360;43.506;1.500;2024-02-23T09:14:51;97810.78;;;7.15;72.68
81897;BME280;71360;43.506;1.500;2024-02-23T09:17:17;97796.44;;;7.18;72.39
81897;BME280;71360;43.506;1.500;2024-02-23T09:19:44;97798.84;;;7.22;72.27
81897;BME280;71360;43.506;1.500;2024-02-23T09:22:10;97798.66;;;7.25;72.08
81897;BME280;71360;43.506;1.500;2024-02-23T09:24:39;97805.78;;;7.25;71.48
81897;BME280;71360;43.506;1.500;2024-02-23T09:27:05;97801.59;;;7.21;71.70
81897;BME280;71360;43.506;1.500;2024-02-23T09:29:32;97813.19;;;7.20;71.22
81897;BME280;71360;43.506;1.500;2024-02-23T09:31:57;97806.16;;;7.19;71.26
81897;BME280;71360;43.506;1.500;2024-02-23T09:34:23;97800.53;;;7.23;71.80
81897;BME280;71360;43.506;1.500;2024-02-23T09:36:49;97802.84;;;7.30;71.71
81897;BME280;71360;43.506;1.500;2024-02-23T09:39:15;97792.59;;;7.38;71.75
81897;BME280;71360;43.506;1.500;2024-02-23T09:41:42;97798.88;;;7.51;70.59
81897;BME280;71360;43.506;1.500;2024-02-23T09:44:08;97811.03;;;7.55;70.27
81897;BME280;71360;43.506;1.500;2024-02-23T09:46:36;97807.94;;;7.63;69.87
81897;BME280;71360;43.506;1.500;2024-02-23T09:49:02;97810.09;;;7.71;70.31
81897;BME280;71360;43.506;1.500;2024-02-23T09:51:29;97807.81;;;7.79;68.73
81897;BME280;71360;43.506;1.500;2024-02-23T09:53:55;97805.63;;;7.86;69.47
81897;BME280;71360;43.506;1.500;2024-02-23T09:56:27;97801.56;;;7.94;69.08
81897;BME280;71360;43.506;1.500;2024-02-23T09:58:55;97797.53;;;8.02;68.66
81897;BME280;71360;43.506;1.500;2024-02-23T10:01:27;97798.00;;;8.08;68.38
81897;BME280;71360;43.506;1.500;2024-02-23T10:03:55;97793.38;;;8.12;68.25
81897;BME280;71360;43.506;1.500;2024-02-23T10:06:22;97800.00;;;8.19;68.00
81897;BME280;71360;43.506;1.500;2024-02-23T10:08:47;97790.53;;;8.28;67.41
81897;BME280;71360;43.506;1.500;2024-02-23T10:11:13;97809.66;;;8.35;67.58
81897;BME280;71360;43.506;1.500;2024-02-23T10:13:38;97798.63;;;8.41;66.88
81897;BME280;71360;43.506;1.500;2024-02-23T10:16:05;97809.06;;;8.44;66.06
81897;BME280;71360;43.506;1.500;2024-02-23T10:18:30;97812.03;;;8.39;66.65
81897;BME280;71360;43.506;1.500;2024-02-23T10:20:56;97820.19;;;8.36;66.88
81897;BME280;71360;43.506;1.500;2024-02-23T10:23:22;97812.34;;;8.20;67.07
81897;BME280;71360;43.506;1.500;2024-02-23T10:25:48;97809.91;;;8.03;68.10
81897;BME280;71360;43.506;1.500;2024-02-23T10:28:14;97814.28;;;7.89;67.77
81897;BME280;71360;43.506;1.500;2024-02-23T10:30:39;97821.41;;;7.74;68.19
81897;BME280;71360;43.506;1.500;2024-02-23T10:33:05;97846.69;;;7.67;67.56
81897;BME280;71360;43.506;1.500;2024-02-23T10:35:32;97828.81;;;7.55;68.06
81897;BME280;71360;43.506;1.500;2024-02-23T10:38:01;97833.81;;;7.45;68.71
81897;BME280;71360;43.506;1.500;2024-02-23T10:40:29;97834.09;;;7.40;69.31
81897;BME280;71360;43.506;1.500;2024-02-23T10:42:56;97830.75;;;7.37;69.34
81897;BME280;71360;43.506;1.500;2024-02-23T10:45:27;97843.19;;;7.36;69.40
81897;BME280;71360;43.506;1.500;2024-02-23T10:47:55;97837.97;;;7.35;69.72
81897;BME280;71360;43.506;1.500;2024-02-23T10:50:21;97835.69;;;7.29;69.45
81897;BME280;71360;43.506;1.500;2024-02-23T10:52:48;97830.56;;;7.25;69.14
81897;BME280;71360;43.506;1.500;2024-02-23T10:55:15;97831.59;;;7.23;69.39
81897;BME280;71360;43.506;1.500;2024-02-23T10:57:40;97840.34;;;7.25;70.02
81897;BME280;71360;43.506;1.500;2024-02-23T11:00:07;97841.00;;;7.29;70.18
81897;BME280;71360;43.506;1.500;2024-02-23T11:02:50;97838.72;;;7.37;70.40
81897;BME280;71360;43.506;1.500;2024-02-23T11:05:17;97824.88;;;7.46;70.38
81897;BME280;71360;43.506;1.500;2024-02-23T11:07:46;97833.16;;;7.56;70.22
81897;BME280;71360;43.506;1.500;2024-02-23T11:10:15;97830.81;;;7.66;69.75
81897;BME280;71360;43.506;1.500;2024-02-23T11:12:41;97841.84;;;7.74;70.23
81897;BME280;71360;43.506;1.500;2024-02-23T11:15:06;97834.34;;;7.81;69.87
81897;BME280;71360;43.506;1.500;2024-02-23T11:17:33;97834.88;;;7.86;69.59
81897;BME280;71360;43.506;1.500;2024-02-23T11:20:03;97843.25;;;7.94;69.39
81897;BME280;71360;43.506;1.500;2024-02-23T11:22:33;97838.78;;;7.94;69.75
81897;BME280;71360;43.506;1.500;2024-02-23T11:25:02;97849.63;;;7.91;69.62
81897;BME280;71360;43.506;1.500;2024-02-23T11:27:33;97844.31;;;7.91;69.72
81897;BME280;71360;43.506;1.500;2024-02-23T11:30:03;97852.66;;;7.85;70.01
81897;BME280;71360;43.506;1.500;2024-02-23T11:32:43;97839.91;;;7.76;70.08
81897;BME280;71360;43.506;1.500;2024-02-23T11:35:13;97834.81;;;7.73;70.14
81897;BME280;71360;43.506;1.500;2024-02-23T11:37:55;97835.75;;;7.72;70.01
81897;BME280;71360;43.506;1.500;2024-02-23T11:40:30;97847.16;;;7.74;70.86
81897;BME280;71360;43.506;1.500;2024-02-23T11:42:55;97836.03;;;7.82;70.67
81897;BME280;71360;43.506;1.500;2024-02-23T11:45:21;97835.66;;;7.88;70.24
81897;BME280;71360;43.506;1.500;2024-02-23T11:47:47;97832.44;;;7.97;70.65
81897;BME280;71360;43.506;1.500;2024-02-23T11:50:13;97834.69;;;8.03;70.55
81897;BME280;71360;43.506;1.500;2024-02-23T11:52:39;97826.50;;;8.06;70.47
81897;BME280;71360;43.506;1.500;2024-02-23T11:55:06;97837.16;;;8.06;70.12
81897;BME280;71360;43.506;1.500;2024-02-23T11:57:33;97834.69;;;8.03;70.02
81897;BME280;71360;43.506;1.500;2024-02-23T12:00:04;97844.88;;;7.97;70.44
81897;BME280;71360;43.506;1.500;2024-02-23T12:02:32;97840.03;;;7.89;70.13
81897;BME280;71360;43.506;1.500;2024-02-23T12:04:57;97828.16;;;7.80;69.92
81897;BME280;71360;43.506;1.500;2024-02-23T12:07:22;97828.53;;;7.74;70.47
81897;BME280;71360;43.506;1.500;2024-02-23T12:09:48;97815.59;;;7.68;70.67
81897;BME280;71360;43.506;1.500;2024-02-23T12:12:14;97830.03;;;7.64;70.27
81897;BME280;71360;43.506;1.500;2024-02-23T12:14:40;97814.09;;;7.64;70.87
81897;BME280;71360;43.506;1.500;2024-02-23T12:17:07;97810.47;;;7.65;70.73
81897;BME280;71360;43.506;1.500;2024-02-23T12:19:40;97803.25;;;7.67;70.58
81897;BME280;71360;43.506;1.500;2024-02-23T12:22:06;97816.44;;;7.68;70.20
81897;BME280;71360;43.506;1.500;2024-02-23T12:24:31;97795.75;;;7.73;69.71
81897;BME280;71360;43.506;1.500;2024-02-23T12:26:57;97792.16;;;7.74;70.02
81897;BME280;71360;43.506;1.500;2024-02-23T12:29:23;97798.16;;;7.78;69.77
81897;BME280;71360;43.506;1.500;2024-02-23T12:31:49;97791.47;;;7.85;69.77
81897;BME280;71360;43.506;1.500;2024-02-23T12:34:15;97786.72;;;7.90;69.14
81897;BME280;71360;43.506;1.500;2024-02-23T12:36:40;97772.84;;;8.00;68.00
81897;BME280;71360;43.506;1.500;2024-02-23T12:39:06;97783.00;;;8.07;68.09
81897;BME280;71360;43.506;1.500;2024-02-23T12:41:32;97766.75;;;8.12;67.54
81897;BME280;71360;43.506;1.500;2024-02-23T12:43:58;97766.34;;;8.18;67.58
81897;BME280;71360;43.506;1.500;2024-02-23T12:46:23;97757.75;;;8.27;66.77
81897;BME280;71360;43.506;1.500;2024-02-23T12:48:49;97764.38;;;8.35;67.20
81897;BME280;71360;43.506;1.500;2024-02-23T12:51:15;97755.63;;;8.47;66.75
81897;BME280;71360;43.506;1.500;2024-02-23T12:53:42;97762.63;;;8.63;66.55
81897;BME280;71360;43.506;1.500;2024-02-23T12:56:11;97754.56;;;8.77;65.74
81897;BME280;71360;43.506;1.500;2024-02-23T12:58:39;97749.28;;;8.90;65.11
81897;BME280;71360;43.506;1.500;2024-02-23T13:01:05;97751.94;;;9.03;64.56
81897;BME280;71360;43.506;1.500;2024-02-23T13:03:32;97738.22;;;9.09;63.73